Time;durP1;ratioP1;P1;durP2;ratioP2;P2;SDS_P1;SDS_P2;PMS_P1;PMS_P2;Temp;Humidity;BMP_temperature;BMP_pressure;BME280_temperature;BME280_humidity;BME280_pressure;Samples;Min_cycle;Max_cycle;Signal;HPM_P1;HPM_P2
2023/03/04 00:01:38;;;;;;;19.27;3.08;;;6.20;99.90;;;;;;5086940;28;20079;-83
2023/03/04 00:04:04;;;;;;;17.20;2.70;;;6.20;99.90;;;;;;5078826;28;20053;-83
2023/03/04 00:06:30;;;;;;;16.95;2.83;;;6.20;99.90;;;;;;5087542;28;20096;-83
2023/03/04 00:08:55;;;;;;;21.30;3.65;;;6.20;99.90;;;;;;5085753;28;20180;-82
2023/03/04 00:11:21;;;;;;;18.13;2.88;;;6.20;99.90;;;;;;5083903;28;20052;-82
2023/03/04 00:13:46;;;;;;;16.70;3.00;;;6.20;99.90;;;;;;5081070;28;20036;-82
2023/03/04 00:16:12;;;;;;;21.83;3.53;;;6.20;99.90;;;;;;5083784;28;20051;-82
2023/03/04 00:18:38;;;;;;;18.17;2.97;;;6.20;99.90;;;;;;5086491;28;20040;-83
2023/03/04 00:21:03;;;;;;;16.20;3.00;;;6.20;99.90;;;;;;5086481;28;20047;-82
2023/03/04 00:23:29;;;;;;;17.60;2.95;;;6.20;99.90;;;;;;5086792;28;20040;-83
2023/03/04 00:25:55;;;;;;;21.63;3.20;;;6.20;99.90;;;;;;5086135;28;20101;-83
2023/03/04 00:28:20;;;;;;;13.75;2.90;;;6.20;99.90;;;;;;5089442;28;20806;-82
2023/03/04 00:30:46;;;;;;;19.50;3.42;;;6.20;99.90;;;;;;5085957;28;20051;-82
2023/03/04 00:33:12;;;;;;;22.85;4.20;;;6.20;99.90;;;;;;5080061;28;20115;-83
2023/03/04 00:35:37;;;;;;;12.55;2.90;;;6.20;99.90;;;;;;5086605;28;20441;-80
2023/03/04 00:38:03;;;;;;;18.52;3.17;;;6.20;99.90;;;;;;5084386;28;21134;-86
2023/03/04 00:40:29;;;;;;;17.55;2.92;;;6.20;99.90;;;;;;5080911;28;20048;-87
2023/03/04 00:42:54;;;;;;;16.52;3.10;;;6.20;99.90;;;;;;5083162;28;20399;-86
2023/03/04 00:45:20;;;;;;;22.70;4.43;;;6.20;99.90;;;;;;5084618;28;20484;-87
2023/03/04 00:47:45;;;;;;;14.88;3.25;;;6.20;99.90;;;;;;5081220;28;20040;-87
2023/03/04 00:50:11;;;;;;;17.30;3.10;;;6.30;99.90;;;;;;5086051;28;20040;-86
2023/03/04 00:52:37;;;;;;;15.68;3.38;;;6.20;99.90;;;;;;5087308;28;20438;-86
2023/03/04 00:55:03;;;;;;;14.48;2.88;;;6.20;99.90;;;;;;5088209;28;20419;-86
2023/03/04 00:57:29;;;;;;;18.02;2.67;;;6.10;99.90;;;;;;5088681;28;20032;-86
2023/03/04 00:59:54;;;;;;;24.48;3.45;;;6.20;99.90;;;;;;5085883;28;20047;-85
2023/03/04 01:02:20;;;;;;;15.52;3.03;;;6.20;99.90;;;;;;5076931;28;20071;-86
2023/03/04 01:04:46;;;;;;;15.15;2.83;;;6.20;99.90;;;;;;5087033;28;20115;-86
2023/03/04 01:07:11;;;;;;;15.00;3.17;;;6.20;99.90;;;;;;5087341;28;20044;-85
2023/03/04 01:09:37;;;;;;;16.55;2.95;;;6.20;99.90;;;;;;5076528;28;20040;-85
2023/03/04 01:12:03;;;;;;;20.52;3.47;;;6.20;99.90;;;;;;5089045;28;20063;-85
2023/03/04 01:14:28;;;;;;;13.20;2.58;;;6.20;99.90;;;;;;5087977;28;20035;-86
2023/03/04 01:16:54;;;;;;;17.27;3.17;;;6.20;99.90;;;;;;5085426;28;20391;-86
2023/03/04 01:19:20;;;;;;;31.13;4.50;;;6.20;99.90;;;;;;5088632;28;20082;-86
2023/03/04 01:21:46;;;;;;;18.88;3.65;;;6.20;99.90;;;;;;5085782;28;20048;-86
2023/03/04 01:24:11;;;;;;;16.92;3.17;;;6.20;99.90;;;;;;5086856;28;20114;-85
2023/03/04 01:26:37;;;;;;;15.43;3.30;;;6.20;99.90;;;;;;5085977;28;20456;-86
2023/03/04 01:29:03;;;;;;;17.20;2.78;;;6.20;99.90;;;;;;5082028;28;20130;-86
2023/03/04 01:31:28;;;;;;;15.95;2.78;;;6.20;99.90;;;;;;5086277;28;20040;-86
2023/03/04 01:33:54;;;;;;;15.70;2.60;;;6.20;99.90;;;;;;5080804;28;20400;-85
2023/03/04 01:36:19;;;;;;;16.40;3.40;;;6.20;99.90;;;;;;5077189;28;20081;-86
2023/03/04 01:38:45;;;;;;;17.95;3.15;;;6.20;99.90;;;;;;5075896;28;20557;-85
2023/03/04 01:41:13;;;;;;;14.15;3.00;;;6.10;99.90;;;;;;5086343;28;20443;-86
2023/03/04 01:43:39;;;;;;;16.67;3.25;;;6.20;99.90;;;;;;5080933;28;20040;-86
2023/03/04 01:46:05;;;;;;;18.48;2.97;;;6.10;99.90;;;;;;5084073;28;20036;-86
2023/03/04 01:48:35;;;;;;;16.97;3.03;;;6.10;99.90;;;;;;5087467;28;20051;-86
2023/03/04 01:51:05;;;;;;;11.60;2.78;;;6.10;99.90;;;;;;5086088;28;20047;-86
2023/03/04 01:53:32;;;;;;;11.57;2.28;;;6.10;99.90;;;;;;5089821;28;20043;-86
2023/03/04 01:56:10;;;;;;;18.67;2.85;;;6.10;99.90;;;;;;5089159;28;20100;-86
2023/03/04 01:58:36;;;;;;;14.32;2.60;;;6.10;99.90;;;;;;5084931;28;20055;-86
2023/03/04 02:01:02;;;;;;;19.77;3.50;;;6.10;99.90;;;;;;5085440;28;20064;-86
2023/03/04 02:03:28;;;;;;;18.38;3.47;;;6.10;99.90;;;;;;5089492;28;20040;-86
2023/03/04 02:05:54;;;;;;;17.65;3.10;;;6.10;99.90;;;;;;5080985;28;20040;-86
2023/03/04 02:08:23;;;;;;;16.17;3.27;;;6.10;99.90;;;;;;5089414;28;20091;-87
2023/03/04 02:10:50;;;;;;;19.88;3.25;;;6.10;99.90;;;;;;5083336;28;20298;-87
2023/03/04 02:13:16;;;;;;;10.25;2.50;;;6.10;99.90;;;;;;5086965;28;20044;-86
2023/03/04 02:15:43;;;;;;;16.15;2.95;;;6.20;99.90;;;;;;5079170;28;20044;-86
2023/03/04 02:18:22;;;;;;;13.15;2.58;;;6.10;99.90;;;;;;5084762;28;20494;-86
2023/03/04 02:21:11;;;;;;;19.38;2.95;;;6.10;99.90;;;;;;5084482;28;20089;-86
2023/03/04 02:23:45;;;;;;;17.55;3.20;;;6.10;99.90;;;;;;5089391;28;20483;-86
2023/03/04 02:26:16;;;;;;;14.90;3.25;;;6.10;99.90;;;;;;5074849;28;20051;-86
2023/03/04 02:28:43;;;;;;;16.30;3.15;;;6.10;99.90;;;;;;5085855;28;20106;-86
2023/03/04 02:31:20;;;;;;;15.00;2.65;;;6.10;99.90;;;;;;5080058;28;20252;-86
2023/03/04 02:33:45;;;;;;;15.07;2.88;;;6.10;99.90;;;;;;5079908;28;20119;-87
2023/03/04 02:36:11;;;;;;;15.65;2.90;;;6.10;99.90;;;;;;5080716;28;20173;-86
2023/03/04 02:38:37;;;;;;;14.63;2.70;;;6.10;99.90;;;;;;5081723;28;20040;-86
2023/03/04 02:41:03;;;;;;;19.45;2.95;;;6.10;99.90;;;;;;5081083;28;20036;-86
2023/03/04 02:43:29;;;;;;;16.00;3.53;;;6.00;99.90;;;;;;5078454;28;20074;-86
2023/03/04 02:45:55;;;;;;;17.98;3.20;;;6.10;99.90;;;;;;5079331;28;20680;-86
2023/03/04 02:48:22;;;;;;;16.80;3.13;;;6.10;99.90;;;;;;5085142;28;20047;-86
2023/03/04 02:50:51;;;;;;;16.42;3.42;;;6.00;99.90;;;;;;5082688;28;20040;-86
2023/03/04 02:53:19;;;;;;;15.88;3.08;;;6.00;99.90;;;;;;5086713;28;21479;-86
2023/03/04 02:55:45;;;;;;;12.02;2.42;;;6.00;99.90;;;;;;5081717;28;20175;-86
2023/03/04 02:58:12;;;;;;;16.63;2.92;;;6.10;99.90;;;;;;5085243;28;20055;-86
2023/03/04 03:00:39;;;;;;;19.48;2.55;;;6.00;99.90;;;;;;5086602;28;20131;-86
2023/03/04 03:03:05;;;;;;;13.77;2.63;;;6.00;99.90;;;;;;5082467;28;20479;-86
2023/03/04 03:05:33;;;;;;;13.17;3.00;;;6.00;99.90;;;;;;5086487;28;20736;-86
2023/03/04 03:07:59;;;;;;;12.88;2.65;;;6.10;99.90;;;;;;5080088;28;20128;-85
2023/03/04 03:10:25;;;;;;;15.02;3.10;;;6.00;99.90;;;;;;5081146;28;20534;-86
2023/03/04 03:12:51;;;;;;;14.38;2.63;;;6.00;99.90;;;;;;5082941;28;20510;-85
2023/03/04 03:15:17;;;;;;;14.63;3.13;;;6.00;99.90;;;;;;5083526;28;20036;-86
2023/03/04 03:17:43;;;;;;;12.80;2.60;;;6.00;99.90;;;;;;5074921;28;20430;-86
2023/03/04 03:20:10;;;;;;;13.43;2.80;;;6.00;99.90;;;;;;5085438;28;20040;-85
2023/03/04 03:22:36;;;;;;;10.32;2.05;;;5.90;99.90;;;;;;5089614;28;20459;-86
2023/03/04 03:25:02;;;;;;;10.82;2.20;;;5.90;99.90;;;;;;5087922;28;20121;-86
2023/03/04 03:27:28;;;;;;;11.52;2.78;;;5.90;99.90;;;;;;5092122;28;20180;-87
2023/03/04 03:29:54;;;;;;;12.45;2.20;;;5.90;99.90;;;;;;5083221;28;20119;-87
2023/03/04 03:32:19;;;;;;;18.27;3.80;;;5.90;99.90;;;;;;5086052;28;20048;-86
2023/03/04 03:34:45;;;;;;;14.82;2.63;;;5.90;99.90;;;;;;5087396;28;20051;-86
2023/03/04 03:37:11;;;;;;;11.73;2.80;;;5.90;99.90;;;;;;5089306;28;20044;-86
2023/03/04 03:39:37;;;;;;;15.38;2.45;;;5.80;99.90;;;;;;5089294;28;20047;-85
2023/03/04 03:42:03;;;;;;;12.43;2.70;;;5.70;99.90;;;;;;5085382;28;20071;-86
2023/03/04 03:44:28;;;;;;;17.58;3.25;;;5.80;99.90;;;;;;5086389;28;20052;-85
2023/03/04 03:46:54;;;;;;;14.60;2.97;;;5.80;99.90;;;;;;5080078;28;20406;-85
2023/03/04 03:49:20;;;;;;;21.30;3.15;;;5.70;99.90;;;;;;5092078;28;20056;-87
2023/03/04 03:51:46;;;;;;;17.50;2.78;;;5.80;99.90;;;;;;5090902;28;20058;-88
2023/03/04 03:54:11;;;;;;;13.40;2.47;;;5.70;99.90;;;;;;5090816;28;20188;-88
2023/03/04 03:56:37;;;;;;;16.15;2.78;;;5.80;99.90;;;;;;5092214;28;20056;-88
2023/03/04 03:59:03;;;;;;;16.55;2.53;;;5.70;99.90;;;;;;5088285;28;20048;-88
2023/03/04 04:01:28;;;;;;;12.63;2.58;;;5.70;99.90;;;;;;5090414;28;20056;-87
2023/03/04 04:03:54;;;;;;;11.18;2.70;;;5.70;99.90;;;;;;5090193;28;20543;-87
2023/03/04 04:06:19;;;;;;;13.07;2.47;;;5.80;99.90;;;;;;5092225;28;20040;-88
2023/03/04 04:08:45;;;;;;;15.70;2.55;;;5.70;99.90;;;;;;5083162;28;20124;-85
2023/03/04 04:11:11;;;;;;;10.25;2.22;;;5.70;99.90;;;;;;5092120;28;20037;-85
2023/03/04 04:13:38;;;;;;;11.80;2.03;;;5.70;99.90;;;;;;5087788;28;20089;-85
2023/03/04 04:16:04;;;;;;;12.20;2.00;;;5.70;99.90;;;;;;5081792;28;20056;-85
2023/03/04 04:18:29;;;;;;;13.52;2.60;;;5.70;99.90;;;;;;5083482;28;20433;-86
2023/03/04 04:20:55;;;;;;;12.55;2.60;;;5.70;99.90;;;;;;5089546;28;20048;-85
2023/03/04 04:23:21;;;;;;;17.85;2.40;;;5.70;99.90;;;;;;5085679;28;20139;-85
2023/03/04 04:25:46;;;;;;;21.33;2.47;;;5.70;99.90;;;;;;5088271;28;20047;-85
2023/03/04 04:28:12;;;;;;;14.45;2.53;;;5.70;99.90;;;;;;5072911;28;20085;-85
2023/03/04 04:30:38;;;;;;;12.60;2.47;;;5.70;99.90;;;;;;5121832;27;20048;-87
2023/03/04 04:33:04;;;;;;;10.88;2.40;;;5.70;99.90;;;;;;5088172;28;20105;-86
2023/03/04 04:35:32;;;;;;;15.85;2.55;;;5.70;99.90;;;;;;5087092;28;20131;-86
2023/03/04 04:37:57;;;;;;;11.15;2.53;;;5.70;99.90;;;;;;5087531;28;20040;-86
2023/03/04 04:40:23;;;;;;;17.77;3.35;;;5.70;99.90;;;;;;5073390;28;20164;-86
2023/03/04 04:42:49;;;;;;;14.80;2.60;;;5.70;99.90;;;;;;5085151;28;20055;-86
2023/03/04 04:45:15;;;;;;;13.27;2.45;;;5.70;99.90;;;;;;5083196;28;20032;-86
2023/03/04 04:47:41;;;;;;;13.50;2.80;;;5.70;99.90;;;;;;5087652;28;20377;-86
2023/03/04 04:50:08;;;;;;;14.10;2.60;;;5.70;99.90;;;;;;5084077;28;20036;-86
2023/03/04 04:52:34;;;;;;;13.60;2.80;;;5.70;99.90;;;;;;5088652;28;20044;-86
2023/03/04 04:54:59;;;;;;;13.77;2.65;;;5.80;99.90;;;;;;5089341;28;20131;-86
2023/03/04 04:57:25;;;;;;;14.65;2.55;;;5.70;99.90;;;;;;5092030;28;20449;-86
2023/03/04 04:59:51;;;;;;;14.82;2.63;;;5.70;99.90;;;;;;5084981;28;20369;-86
2023/03/04 05:02:16;;;;;;;17.90;2.55;;;5.70;99.90;;;;;;5086162;28;20435;-86
2023/03/04 05:04:42;;;;;;;16.92;2.95;;;5.70;99.90;;;;;;5083676;28;20047;-87
2023/03/04 05:07:07;;;;;;;13.82;2.63;;;5.70;99.90;;;;;;5085106;28;20119;-86
2023/03/04 05:09:33;;;;;;;14.77;2.72;;;5.70;99.90;;;;;;5083620;28;20524;-86
2023/03/04 05:11:59;;;;;;;15.13;2.92;;;5.70;99.90;;;;;;5086939;28;20052;-86
2023/03/04 05:14:24;;;;;;;12.88;2.78;;;5.70;99.90;;;;;;5085136;28;20101;-86
2023/03/04 05:16:51;;;;;;;15.55;2.55;;;5.70;99.90;;;;;;5087432;28;20041;-87
2023/03/04 05:19:18;;;;;;;16.33;2.78;;;5.70;99.90;;;;;;5089832;28;20043;-87
2023/03/04 05:21:43;;;;;;;13.95;2.40;;;5.70;99.90;;;;;;5087597;28;20050;-86
2023/03/04 05:24:09;;;;;;;16.27;2.40;;;5.60;99.90;;;;;;5093956;28;20558;-86
2023/03/04 05:26:35;;;;;;;14.50;2.63;;;5.60;99.90;;;;;;5093526;28;20044;-87
2023/03/04 05:29:01;;;;;;;11.77;2.58;;;5.60;99.90;;;;;;5092019;28;20048;-86
2023/03/04 05:31:26;;;;;;;14.30;2.67;;;5.60;99.90;;;;;;5084500;28;20047;-87
2023/03/04 05:33:52;;;;;;;13.25;2.40;;;5.60;99.90;;;;;;5085600;28;20064;-87
2023/03/04 05:36:18;;;;;;;12.02;2.92;;;5.60;99.90;;;;;;5079872;28;20552;-86
2023/03/04 05:38:43;;;;;;;13.60;2.90;;;5.60;99.90;;;;;;5086752;28;20048;-87
2023/03/04 05:41:09;;;;;;;16.85;2.95;;;5.60;99.90;;;;;;5089661;28;20047;-86
2023/03/04 05:43:37;;;;;;;18.08;3.28;;;5.50;99.90;;;;;;5085988;28;20395;-86
2023/03/04 05:46:03;;;;;;;;;;;5.60;99.90;;;;;;5085945;28;20112;-87
2023/03/04 05:48:28;;;;;;;13.35;2.40;;;5.50;99.90;;;;;;5086282;28;20367;-86
2023/03/04 05:50:59;;;;;;;17.75;2.83;;;5.50;99.90;;;;;;5086854;28;20040;-87
2023/03/04 05:53:25;;;;;;;15.85;3.05;;;5.50;99.90;;;;;;5085331;28;20044;-86
2023/03/04 05:55:51;;;;;;;15.38;2.72;;;5.50;99.90;;;;;;5088689;28;20052;-88
2023/03/04 05:58:17;;;;;;;20.80;3.65;;;5.50;99.90;;;;;;5089176;28;20051;-88
2023/03/04 06:00:44;;;;;;;16.42;2.75;;;5.40;99.90;;;;;;5086734;28;20052;-86
2023/03/04 06:03:18;;;;;;;14.98;2.70;;;5.50;99.90;;;;;;5088340;28;20243;-87
2023/03/04 06:05:44;;;;;;;14.52;3.45;;;5.50;99.90;;;;;;5089899;28;20048;-87
2023/03/04 06:08:11;;;;;;;18.02;2.60;;;5.50;99.90;;;;;;5088683;28;20047;-87
2023/03/04 06:10:38;;;;;;;17.02;3.33;;;5.40;99.90;;;;;;5087302;28;20036;-87
2023/03/04 06:13:03;;;;;;;14.00;2.75;;;5.40;99.90;;;;;;5082189;28;20040;-86
2023/03/04 06:15:29;;;;;;;17.20;2.92;;;5.40;99.90;;;;;;5086386;28;20039;-86
2023/03/04 06:17:55;;;;;;;19.75;3.22;;;5.40;99.90;;;;;;5082905;28;20476;-87
2023/03/04 06:20:20;;;;;;;22.80;3.40;;;5.40;99.90;;;;;;5085187;28;20043;-87
2023/03/04 06:22:46;;;;;;;15.93;3.53;;;5.40;99.90;;;;;;5086290;28;20153;-87
2023/03/04 06:25:12;;;;;;;16.65;2.95;;;5.40;99.90;;;;;;5081387;28;20040;-87
2023/03/04 06:27:38;;;;;;;13.20;2.95;;;5.40;99.90;;;;;;5078824;28;20132;-87
2023/03/04 06:30:04;;;;;;;15.05;3.33;;;5.40;99.90;;;;;;5077507;28;20565;-87
2023/03/04 06:32:29;;;;;;;18.55;3.88;;;5.30;99.90;;;;;;5083215;28;20502;-87
2023/03/04 06:34:55;;;;;;;14.32;3.08;;;5.30;99.90;;;;;;5079716;28;20056;-87
2023/03/04 06:37:21;;;;;;;20.33;3.08;;;5.30;99.90;;;;;;5081385;28;20395;-87
2023/03/04 06:39:46;;;;;;;16.45;3.78;;;5.30;99.90;;;;;;5086280;28;20040;-87
2023/03/04 06:42:13;;;;;;;15.43;3.20;;;5.30;99.90;;;;;;5085818;28;20036;-88
2023/03/04 06:44:39;;;;;;;15.48;3.30;;;5.30;99.90;;;;;;5080262;28;20035;-87
2023/03/04 06:47:04;;;;;;;16.05;3.17;;;5.30;99.90;;;;;;5083178;28;20415;-86
2023/03/04 06:49:30;;;;;;;15.27;3.15;;;5.30;99.90;;;;;;5086117;28;20040;-87
2023/03/04 06:51:55;;;;;;;18.55;3.70;;;5.30;99.90;;;;;;5090811;28;20135;-87
2023/03/04 06:54:21;;;;;;;17.27;3.38;;;5.30;99.90;;;;;;5085946;28;20641;-87
2023/03/04 06:56:47;;;;;;;14.82;3.55;;;5.30;99.90;;;;;;5089755;28;20047;-87
2023/03/04 06:59:13;;;;;;;18.05;3.72;;;5.30;99.90;;;;;;5090990;28;20109;-86
2023/03/04 07:01:38;;;;;;;12.35;3.40;;;5.30;99.90;;;;;;5085191;28;20059;-85
2023/03/04 07:04:04;;;;;;;15.07;2.83;;;5.30;99.90;;;;;;5089572;28;20120;-85
2023/03/04 07:06:30;;;;;;;18.30;3.78;;;5.30;99.90;;;;;;5082977;28;20089;-85
2023/03/04 07:08:56;;;;;;;18.85;4.00;;;5.40;99.90;;;;;;5089215;28;20056;-84
2023/03/04 07:11:23;;;;;;;16.15;3.28;;;5.40;99.90;;;;;;5085639;28;20093;-83
2023/03/04 07:13:49;;;;;;;11.70;3.17;;;5.40;99.90;;;;;;5083136;28;20117;-82
2023/03/04 07:16:18;;;;;;;17.30;3.28;;;5.40;99.90;;;;;;5082794;28;20055;-83
2023/03/04 07:18:45;;;;;;;16.65;3.25;;;5.50;99.90;;;;;;5088839;28;20047;-83
2023/03/04 07:21:12;;;;;;;11.48;3.03;;;5.50;99.90;;;;;;5087726;28;20043;-83
2023/03/04 07:23:38;;;;;;;15.38;3.10;;;5.50;99.90;;;;;;5091041;28;20032;-83
2023/03/04 07:26:05;;;;;;;16.70;2.95;;;5.50;99.90;;;;;;5083313;28;20054;-83
2023/03/04 07:28:31;;;;;;;12.53;3.10;;;5.50;99.90;;;;;;5085927;28;20032;-78
2023/03/04 07:31:06;;;;;;;15.60;3.50;;;5.60;99.90;;;;;;5083484;28;20324;-79
2023/03/04 07:33:31;;;;;;;13.25;2.83;;;5.60;99.90;;;;;;5083967;28;20058;-80
2023/03/04 07:35:58;;;;;;;10.88;2.88;;;5.60;99.90;;;;;;5081867;28;20403;-79
2023/03/04 07:38:24;;;;;;;13.95;3.63;;;5.60;99.90;;;;;;5091363;28;20048;-79
2023/03/04 07:40:56;;;;;;;14.85;6.03;;;5.70;99.90;;;;;;5089042;28;20043;-79
2023/03/04 07:43:25;;;;;;;12.45;3.30;;;5.70;99.90;;;;;;5081111;28;20475;-80
2023/03/04 07:45:51;;;;;;;10.32;3.03;;;5.70;99.90;;;;;;5087451;28;20036;-80
2023/03/04 07:48:17;;;;;;;14.20;3.28;;;5.70;99.90;;;;;;5086855;28;20044;-80
2023/03/04 07:50:43;;;;;;;11.48;3.35;;;5.70;99.90;;;;;;5087595;28;20073;-80
2023/03/04 07:53:08;;;;;;;8.95;2.70;;;5.70;99.90;;;;;;5087683;28;20036;-80
2023/03/04 07:55:34;;;;;;;10.98;2.92;;;5.80;99.90;;;;;;5091188;28;20124;-79
2023/03/04 07:58:02;;;;;;;12.75;3.75;;;5.80;99.90;;;;;;5088280;28;20032;-79
2023/03/04 08:00:27;;;;;;;12.77;3.20;;;5.80;99.90;;;;;;5089368;28;20047;-79
2023/03/04 08:02:53;;;;;;;9.52;2.67;;;5.80;99.90;;;;;;5089669;28;20414;-79
2023/03/04 08:05:19;;;;;;;10.48;3.03;;;5.90;99.90;;;;;;5085827;28;20039;-80
2023/03/04 08:07:44;;;;;;;9.45;3.15;;;5.90;99.90;;;;;;5092085;28;20132;-80
2023/03/04 08:10:10;;;;;;;9.73;2.50;;;5.90;99.90;;;;;;5088903;28;20049;-80
2023/03/04 08:12:36;;;;;;;10.05;2.70;;;6.00;99.90;;;;;;5087891;28;20036;-80
2023/03/04 08:15:03;;;;;;;12.55;2.97;;;6.00;99.90;;;;;;5088247;28;20039;-80
2023/03/04 08:17:28;;;;;;;9.43;2.93;;;6.00;99.90;;;;;;5084628;28;20086;-80
2023/03/04 08:19:55;;;;;;;11.25;2.78;;;6.10;99.90;;;;;;5088422;28;20302;-80
2023/03/04 08:22:20;;;;;;;12.13;2.83;;;6.10;99.90;;;;;;5079170;28;20043;-79
2023/03/04 08:24:46;;;;;;;7.35;2.10;;;6.10;99.90;;;;;;5086746;28;20118;-80
2023/03/04 08:27:12;;;;;;;12.35;2.17;;;6.20;99.90;;;;;;5090047;28;20745;-80
2023/03/04 08:29:38;;;;;;;12.27;2.38;;;6.20;99.90;;;;;;5089619;28;20471;-78
2023/03/04 08:32:04;;;;;;;7.97;2.15;;;6.20;99.90;;;;;;5081208;28;20047;-79
2023/03/04 08:34:30;;;;;;;9.23;1.92;;;6.20;99.90;;;;;;5086069;28;20040;-84
2023/03/04 08:36:56;;;;;;;8.90;1.90;;;6.30;99.90;;;;;;5087938;28;20127;-79
2023/03/04 08:39:21;;;;;;;8.20;1.85;;;6.30;99.90;;;;;;5085229;28;20462;-82
2023/03/04 08:41:48;;;;;;;9.43;2.10;;;6.20;99.90;;;;;;5083175;28;20717;-82
2023/03/04 08:44:14;;;;;;;8.50;1.95;;;6.30;99.90;;;;;;5083889;28;20071;-91
2023/03/04 08:46:41;;;;;;;8.77;1.90;;;6.30;99.90;;;;;;5085682;28;20499;-87
2023/03/04 08:49:07;;;;;;;9.48;1.85;;;6.30;99.90;;;;;;5091379;28;20037;-83
2023/03/04 08:51:34;;;;;;;9.07;2.00;;;6.20;99.90;;;;;;5092873;28;20372;-88
2023/03/04 08:54:04;;;;;;;8.38;2.13;;;6.20;99.90;;;;;;5089931;28;20036;-84
2023/03/04 08:56:30;;;;;;;10.82;2.53;;;6.20;99.90;;;;;;5103013;28;20490;-84
2023/03/04 08:58:56;;;;;;;10.88;2.40;;;6.20;99.90;;;;;;5090125;28;20080;-84
2023/03/04 09:01:21;;;;;;;18.00;2.83;;;6.20;99.90;;;;;;5082851;28;20056;-83
2023/03/04 09:03:47;;;;;;;15.52;2.65;;;6.20;99.90;;;;;;5080705;28;20036;-82
2023/03/04 09:06:15;;;;;;;16.15;2.97;;;6.20;99.90;;;;;;5096982;28;20043;-85
2023/03/04 09:08:43;;;;;;;14.85;2.83;;;6.20;99.90;;;;;;5092960;28;20121;-86
2023/03/04 09:11:09;;;;;;;23.35;3.63;;;6.10;99.90;;;;;;5087216;28;20047;-80
2023/03/04 09:13:35;;;;;;;19.85;3.58;;;6.10;99.90;;;;;;5086705;28;20437;-83
2023/03/04 09:16:01;;;;;;;16.95;3.55;;;6.10;99.90;;;;;;5091150;28;20052;-82
2023/03/04 09:18:27;;;;;;;23.48;3.75;;;6.10;99.90;;;;;;5088247;28;20048;-86
2023/03/04 09:20:53;;;;;;;17.10;3.58;;;6.10;99.90;;;;;;5088570;28;20048;-85
2023/03/04 09:23:19;;;;;;;18.02;3.45;;;6.10;99.90;;;;;;5090301;28;20037;-78
2023/03/04 09:25:46;;;;;;;17.30;3.45;;;6.00;99.90;;;;;;5091394;28;20052;-86
2023/03/04 09:28:12;;;;;;;18.93;3.37;;;6.10;99.90;;;;;;5125832;27;20039;-83
2023/03/04 09:30:39;;;;;;;17.88;3.17;;;6.00;99.90;;;;;;5093194;28;20310;-83
2023/03/04 09:33:05;;;;;;;22.35;4.10;;;6.10;99.90;;;;;;5084108;28;20125;-90
2023/03/04 09:35:30;;;;;;;19.73;3.42;;;6.20;99.90;;;;;;5092410;28;20059;-88
2023/03/04 09:37:57;;;;;;;24.48;4.00;;;6.20;99.90;;;;;;5095718;28;20082;-85
2023/03/04 09:40:31;;;;;;;21.30;3.40;;;6.40;99.90;;;;;;5082302;28;20033;-88
2023/03/04 09:43:05;;;;;;;24.17;4.10;;;6.40;99.90;;;;;;5082627;28;20378;-88
2023/03/04 09:45:40;;;;;;;22.08;4.25;;;6.50;99.90;;;;;;5091845;28;20479;-91
2023/03/04 09:48:09;;;;;;;23.25;4.57;;;6.50;99.90;;;;;;5085842;28;20440;-87
2023/03/04 09:50:40;;;;;;;18.33;3.83;;;6.60;99.90;;;;;;5083582;28;20387;-88
2023/03/04 09:53:14;;;;;;;22.20;3.80;;;6.60;99.90;;;;;;5089328;28;20059;-90
2023/03/04 09:55:42;;;;;;;18.92;4.18;;;6.70;99.90;;;;;;5094843;28;20047;-87
2023/03/04 09:58:23;;;;;;;25.60;4.78;;;6.70;99.90;;;;;;5085240;28;20046;-90
2023/03/04 10:01:31;;;;;;;19.60;3.30;;;6.80;99.90;;;;;;5089860;28;20048;-89
2023/03/04 10:04:09;;;;;;;24.65;4.18;;;6.80;99.90;;;;;;5076022;28;20138;-89
2023/03/04 10:06:37;;;;;;;14.27;3.60;;;6.80;99.90;;;;;;5081380;28;20058;-82
2023/03/04 10:09:24;;;;;;;25.05;4.75;;;6.90;99.90;;;;;;5088620;28;20127;-80
2023/03/04 10:11:58;;;;;;;20.17;3.83;;;6.90;99.90;;;;;;5089406;28;20055;-80
2023/03/04 10:14:35;;;;;;;20.83;4.25;;;6.90;99.90;;;;;;5090190;28;20055;-79
2023/03/04 10:17:12;;;;;;;21.33;3.72;;;6.90;99.90;;;;;;5088179;28;20079;-79
2023/03/04 10:20:05;;;;;;;20.65;3.97;;;6.90;99.90;;;;;;5089740;28;20063;-80
2023/03/04 10:22:35;;;;;;;15.55;3.40;;;6.90;99.90;;;;;;5079897;28;20040;-92
2023/03/04 10:25:26;;;;;;;18.05;3.78;;;6.90;99.90;;;;;;5093437;28;20046;-88
2023/03/04 10:28:11;;;;;;;21.20;3.65;;;6.90;99.90;;;;;;5094122;28;20101;-89
2023/03/04 10:31:07;;;;;;;16.27;3.13;;;7.00;99.90;;;;;;5085119;28;20412;-91
2023/03/04 10:33:35;;;;;;;18.20;3.33;;;7.00;99.90;;;;;;5095109;28;20036;-92
2023/03/04 10:36:01;;;;;;;19.63;3.63;;;7.00;99.90;;;;;;5093626;28;20149;-88
2023/03/04 10:38:33;;;;;;;11.77;2.13;;;7.10;99.90;;;;;;5092741;28;20127;-90
2023/03/04 10:40:59;;;;;;;15.02;2.65;;;7.10;99.90;;;;;;5088618;28;20547;-78
2023/03/04 10:43:26;;;;;;;18.10;2.97;;;7.00;99.90;;;;;;5089517;28;20040;-78
2023/03/04 10:45:56;;;;;;;10.27;1.95;;;7.00;99.90;;;;;;5075867;28;20377;-78
2023/03/04 10:48:27;;;;;;;11.30;2.05;;;6.90;99.90;;;;;;5095058;28;20040;-78
2023/03/04 10:50:54;;;;;;;11.43;1.90;;;6.80;99.90;;;;;;5094620;28;20036;-78
2023/03/04 10:53:38;;;;;;;9.60;1.83;;;6.70;99.90;;;;;;5093049;28;20086;-78
2023/03/04 10:56:29;;;;;;;7.70;1.48;;;6.60;99.90;;;;;;5093390;28;20122;-78
2023/03/04 10:59:34;;;;;;;12.43;1.90;;;6.60;99.90;;;;;;5094128;28;20107;-78
2023/03/04 11:02:27;;;;;;;12.00;2.00;;;6.70;99.90;;;;;;5072598;28;20053;-78
2023/03/04 11:04:54;;;;;;;15.43;2.17;;;6.80;99.90;;;;;;5074119;28;20484;-77
2023/03/04 11:07:25;;;;;;;12.15;2.00;;;6.80;99.90;;;;;;5072925;28;20045;-78
2023/03/04 11:09:51;;;;;;;12.55;1.85;;;6.90;99.90;;;;;;5074009;28;20029;-78
2023/03/04 11:12:20;;;;;;;10.25;1.98;;;7.00;99.90;;;;;;5078531;28;20494;-78
2023/03/04 11:14:48;;;;;;;12.43;2.03;;;7.10;99.90;;;;;;5093316;28;20086;-77
2023/03/04 11:17:17;;;;;;;9.60;1.90;;;7.20;99.90;;;;;;5092528;28;20048;-78
2023/03/04 11:19:47;;;;;;;10.88;1.98;;;7.30;99.90;;;;;;5092923;28;20048;-78
2023/03/04 11:22:19;;;;;;;8.38;2.10;;;7.30;99.90;;;;;;5092922;28;20487;-78
2023/03/04 11:24:54;;;;;;;13.95;2.83;;;7.20;99.90;;;;;;5092920;28;20040;-78
2023/03/04 11:27:44;;;;;;;16.15;2.70;;;7.10;99.90;;;;;;5091937;28;20116;-77
2023/03/04 11:30:22;;;;;;;19.58;3.70;;;7.00;99.90;;;;;;5094619;28;20453;-77
2023/03/04 11:32:51;;;;;;;17.83;4.20;;;6.70;99.90;;;;;;5094190;28;20044;-77
2023/03/04 11:35:17;;;;;;;21.00;3.25;;;6.60;99.90;;;;;;5090903;28;20044;-77
2023/03/04 11:38:01;;;;;;;19.77;3.95;;;6.50;99.90;;;;;;5093825;28;20074;-78
2023/03/04 11:40:39;;;;;;;17.58;2.90;;;6.50;99.90;;;;;;5093658;28;20093;-78
2023/03/04 11:43:20;;;;;;;19.02;3.30;;;6.40;99.90;;;;;;5088603;28;20140;-78
2023/03/04 11:46:17;;;;;;;17.33;3.22;;;6.50;99.90;;;;;;5092186;28;20048;-78
2023/03/04 11:49:01;;;;;;;;;;;6.60;99.90;;;;;;5093774;28;20376;-78
2023/03/04 11:51:45;;;;;;;25.77;4.00;;;6.60;99.90;;;;;;5093617;28;19930;-78
2023/03/04 11:54:17;;;;;;;19.52;3.72;;;6.70;99.90;;;;;;5093535;28;20044;-77
2023/03/04 11:56:57;;;;;;;19.13;3.80;;;6.90;99.90;;;;;;5092320;28;20050;-78
2023/03/04 11:59:51;;;;;;;17.25;3.60;;;7.20;99.90;;;;;;5091814;28;20043;-78
2023/03/04 12:02:40;;;;;;;16.52;3.20;;;7.20;99.90;;;;;;5091768;28;20051;-77
2023/03/04 12:05:50;;;;;;;15.80;3.03;;;7.30;99.90;;;;;;5092996;28;20052;-78
2023/03/04 12:08:25;;;;;;;18.83;3.10;;;7.30;99.90;;;;;;5014432;28;20136;-78
2023/03/04 12:11:10;;;;;;;15.40;3.50;;;7.30;99.90;;;;;;5085624;28;20060;-77
2023/03/04 12:13:51;;;;;;;17.00;2.90;;;7.30;99.90;;;;;;5073231;28;20043;-77
2023/03/04 12:16:38;;;;;;;14.20;3.65;;;7.30;99.90;;;;;;5076337;28;20052;-79
2023/03/04 12:19:27;;;;;;;16.23;3.50;;;7.30;99.90;;;;;;5093476;28;20104;-79
2023/03/04 12:22:17;;;;;;;14.30;2.78;;;7.40;99.90;;;;;;5092046;28;20048;-79
2023/03/04 12:25:02;;;;;;;15.30;3.60;;;7.50;99.90;;;;;;5091820;28;20055;-79
2023/03/04 12:27:46;;;;;;;13.05;3.03;;;7.60;99.90;;;;;;5090545;28;20126;-79
2023/03/04 12:30:52;;;;;;;15.38;3.13;;;7.60;99.90;;;;;;5092347;28;20498;-79
2023/03/04 12:33:36;;;;;;;17.67;3.20;;;7.60;99.90;;;;;;5088118;28;20032;-79
2023/03/04 12:36:10;;;;;;;13.18;3.03;;;7.60;99.90;;;;;;5079818;28;20086;-88
2023/03/04 12:39:14;;;;;;;14.68;2.92;;;7.70;99.90;;;;;;5091071;28;20052;-81
2023/03/04 12:42:12;;;;;;;18.05;3.53;;;7.80;99.90;;;;;;5091679;28;20048;-80
2023/03/04 12:44:47;;;;;;;10.25;2.50;;;7.80;99.90;;;;;;5084805;28;20484;-82
2023/03/04 12:48:05;;;;;;;15.02;2.92;;;7.90;99.90;;;;;;5106410;28;20051;-82
2023/03/04 12:50:49;;;;;;;12.73;2.70;;;8.00;99.90;;;;;;5069853;28;20055;-82
2023/03/04 12:53:42;;;;;;;14.65;2.80;;;8.10;99.90;;;;;;5089291;28;20119;-81
2023/03/04 12:56:25;;;;;;;14.27;2.50;;;8.00;99.90;;;;;;5082685;28;20116;-81
2023/03/04 12:58:51;;;;;;;13.07;3.00;;;8.00;99.90;;;;;;5088328;28;20040;-80
2023/03/04 13:01:26;;;;;;;11.98;2.80;;;7.90;99.90;;;;;;5088770;28;20491;-81